sensor_id;sensor_type;location;lat;lon;timestamp;P1;durP1;ratioP1;P2;durP2;ratioP2
31782;SDS011;18351;47.560;9.708;2023-09-30T00:00:21;37.60;;;16.77;;
31782;SDS011;18351;47.560;9.708;2023-09-30T00:02:47;33.33;;;16.02;;
31782;SDS011;18351;47.560;9.708;2023-09-30T00:05:13;39.55;;;17.90;;
31782;SDS011;18351;47.560;9.708;2023-09-30T00:07:40;34.63;;;15.95;;
31782;SDS011;18351;47.560;9.708;2023-09-30T00:10:05;37.05;;;16.75;;
31782;SDS011;18351;47.560;9.708;2023-09-30T00:12:31;31.75;;;15.20;;
31782;SDS011;18351;47.560;9.708;2023-09-30T00:14:57;37.05;;;15.95;;
31782;SDS011;18351;47.560;9.708;2023-09-30T00:17:23;35.65;;;15.45;;
31782;SDS011;18351;47.560;9.708;2023-09-30T00:19:48;40.22;;;16.48;;
31782;SDS011;18351;47.560;9.708;2023-09-30T00:22:14;38.25;;;16.40;;
31782;SDS011;18351;47.560;9.708;2023-09-30T00:24:40;36.67;;;15.95;;
31782;SDS011;18351;47.560;9.708;2023-09-30T00:27:05;36.17;;;15.90;;
31782;SDS011;18351;47.560;9.708;2023-09-30T00:29:31;33.75;;;15.63;;
31782;SDS011;18351;47.560;9.708;2023-09-30T00:31:57;38.35;;;17.20;;
31782;SDS011;18351;47.560;9.708;2023-09-30T00:34:22;37.60;;;15.82;;
31782;SDS011;18351;47.560;9.708;2023-09-30T00:36:48;30.25;;;15.05;;
31782;SDS011;18351;47.560;9.708;2023-09-30T00:39:13;37.42;;;16.38;;
31782;SDS011;18351;47.560;9.708;2023-09-30T00:41:39;34.58;;;15.10;;
31782;SDS011;18351;47.560;9.708;2023-09-30T00:44:05;34.83;;;15.68;;
31782;SDS011;18351;47.560;9.708;2023-09-30T00:46:31;36.15;;;16.17;;
31782;SDS011;18351;47.560;9.708;2023-09-30T00:48:59;40.30;;;16.60;;
31782;SDS011;18351;47.560;9.708;2023-09-30T00:51:26;31.90;;;15.30;;
31782;SDS011;18351;47.560;9.708;2023-09-30T00:53:52;29.35;;;14.75;;
31782;SDS011;18351;47.560;9.708;2023-09-30T00:56:19;34.83;;;15.23;;
31782;SDS011;18351;47.560;9.708;2023-09-30T00:58:48;32.22;;;15.90;;
31782;SDS011;18351;47.560;9.708;2023-09-30T01:01:17;33.13;;;15.50;;
31782;SDS011;18351;47.560;9.708;2023-09-30T01:03:45;34.63;;;15.38;;
31782;SDS011;18351;47.560;9.708;2023-09-30T01:06:11;31.85;;;14.82;;
31782;SDS011;18351;47.560;9.708;2023-09-30T01:08:37;32.20;;;14.80;;
31782;SDS011;18351;47.560;9.708;2023-09-30T01:11:03;37.88;;;16.58;;
31782;SDS011;18351;47.560;9.708;2023-09-30T01:13:35;45.58;;;16.00;;
31782;SDS011;18351;47.560;9.708;2023-09-30T01:16:08;34.22;;;15.50;;
31782;SDS011;18351;47.560;9.708;2023-09-30T01:18:35;37.83;;;16.25;;
31782;SDS011;18351;47.560;9.708;2023-09-30T01:21:02;39.67;;;15.60;;
31782;SDS011;18351;47.560;9.708;2023-09-30T01:23:32;33.30;;;16.10;;
31782;SDS011;18351;47.560;9.708;2023-09-30T01:26:16;36.42;;;15.70;;
31782;SDS011;18351;47.560;9.708;2023-09-30T01:28:43;36.55;;;14.93;;
31782;SDS011;18351;47.560;9.708;2023-09-30T01:31:08;33.95;;;15.27;;
31782;SDS011;18351;47.560;9.708;2023-09-30T01:33:34;31.75;;;14.90;;
31782;SDS011;18351;47.560;9.708;2023-09-30T01:36:00;37.08;;;15.02;;
31782;SDS011;18351;47.560;9.708;2023-09-30T01:38:25;32.40;;;15.48;;
31782;SDS011;18351;47.560;9.708;2023-09-30T01:40:51;32.85;;;15.48;;
31782;SDS011;18351;47.560;9.708;2023-09-30T01:43:17;30.77;;;15.00;;
31782;SDS011;18351;47.560;9.708;2023-09-30T01:45:42;34.00;;;15.73;;
31782;SDS011;18351;47.560;9.708;2023-09-30T01:48:09;35.30;;;15.00;;
31782;SDS011;18351;47.560;9.708;2023-09-30T01:50:38;33.10;;;15.63;;
31782;SDS011;18351;47.560;9.708;2023-09-30T01:53:05;38.67;;;15.73;;
31782;SDS011;18351;47.560;9.708;2023-09-30T01:55:31;29.38;;;13.52;;
31782;SDS011;18351;47.560;9.708;2023-09-30T01:57:58;35.00;;;15.75;;
31782;SDS011;18351;47.560;9.708;2023-09-30T02:00:23;34.70;;;15.25;;
31782;SDS011;18351;47.560;9.708;2023-09-30T02:02:49;33.25;;;14.45;;
31782;SDS011;18351;47.560;9.708;2023-09-30T02:05:14;31.33;;;14.25;;
31782;SDS011;18351;47.560;9.708;2023-09-30T02:07:40;31.20;;;13.38;;
31782;SDS011;18351;47.560;9.708;2023-09-30T02:10:06;34.67;;;14.35;;
31782;SDS011;18351;47.560;9.708;2023-09-30T02:12:32;32.30;;;14.20;;
31782;SDS011;18351;47.560;9.708;2023-09-30T02:14:58;31.50;;;14.68;;
31782;SDS011;18351;47.560;9.708;2023-09-30T02:17:23;36.42;;;15.13;;
31782;SDS011;18351;47.560;9.708;2023-09-30T02:19:49;36.03;;;14.25;;
31782;SDS011;18351;47.560;9.708;2023-09-30T02:22:15;34.03;;;14.45;;
31782;SDS011;18351;47.560;9.708;2023-09-30T02:24:40;30.17;;;13.50;;
31782;SDS011;18351;47.560;9.708;2023-09-30T02:27:06;30.75;;;13.38;;
31782;SDS011;18351;47.560;9.708;2023-09-30T02:29:32;28.95;;;13.20;;
31782;SDS011;18351;47.560;9.708;2023-09-30T02:31:58;30.50;;;13.63;;
31782;SDS011;18351;47.560;9.708;2023-09-30T02:34:23;28.20;;;13.48;;
31782;SDS011;18351;47.560;9.708;2023-09-30T02:36:49;34.65;;;13.95;;
31782;SDS011;18351;47.560;9.708;2023-09-30T02:39:15;32.33;;;14.30;;
31782;SDS011;18351;47.560;9.708;2023-09-30T02:41:41;30.83;;;13.35;;
31782;SDS011;18351;47.560;9.708;2023-09-30T02:44:07;34.67;;;14.27;;
31782;SDS011;18351;47.560;9.708;2023-09-30T02:46:33;32.42;;;14.43;;
31782;SDS011;18351;47.560;9.708;2023-09-30T02:49:00;32.15;;;13.65;;
31782;SDS011;18351;47.560;9.708;2023-09-30T02:51:26;28.70;;;12.90;;
31782;SDS011;18351;47.560;9.708;2023-09-30T02:53:53;31.42;;;13.15;;
31782;SDS011;18351;47.560;9.708;2023-09-30T02:56:18;28.63;;;12.68;;
31782;SDS011;18351;47.560;9.708;2023-09-30T02:58:45;31.83;;;13.88;;
31782;SDS011;18351;47.560;9.708;2023-09-30T03:01:13;29.80;;;13.20;;
31782;SDS011;18351;47.560;9.708;2023-09-30T03:03:41;29.08;;;12.77;;
31782;SDS011;18351;47.560;9.708;2023-09-30T03:06:09;34.50;;;12.82;;
31782;SDS011;18351;47.560;9.708;2023-09-30T03:08:35;28.70;;;12.40;;
31782;SDS011;18351;47.560;9.708;2023-09-30T03:11:01;26.95;;;12.65;;
31782;SDS011;18351;47.560;9.708;2023-09-30T03:13:27;27.58;;;12.20;;
31782;SDS011;18351;47.560;9.708;2023-09-30T03:15:52;34.13;;;14.65;;
31782;SDS011;18351;47.560;9.708;2023-09-30T03:18:18;29.08;;;12.00;;
31782;SDS011;18351;47.560;9.708;2023-09-30T03:20:51;25.40;;;11.85;;
31782;SDS011;18351;47.560;9.708;2023-09-30T03:23:21;28.08;;;12.60;;
31782;SDS011;18351;47.560;9.708;2023-09-30T03:25:47;26.13;;;11.93;;
31782;SDS011;18351;47.560;9.708;2023-09-30T03:28:13;30.42;;;12.13;;
31782;SDS011;18351;47.560;9.708;2023-09-30T03:30:39;28.65;;;13.10;;
31782;SDS011;18351;47.560;9.708;2023-09-30T03:33:05;33.53;;;13.48;;
31782;SDS011;18351;47.560;9.708;2023-09-30T03:35:31;30.67;;;12.27;;
31782;SDS011;18351;47.560;9.708;2023-09-30T03:37:57;29.17;;;12.75;;
31782;SDS011;18351;47.560;9.708;2023-09-30T03:40:23;29.92;;;12.68;;
31782;SDS011;18351;47.560;9.708;2023-09-30T03:42:53;27.73;;;12.25;;
31782;SDS011;18351;47.560;9.708;2023-09-30T03:45:19;26.60;;;12.68;;
31782;SDS011;18351;47.560;9.708;2023-09-30T03:47:45;32.10;;;12.13;;
31782;SDS011;18351;47.560;9.708;2023-09-30T03:50:12;26.92;;;11.50;;
31782;SDS011;18351;47.560;9.708;2023-09-30T03:52:39;31.52;;;11.98;;
31782;SDS011;18351;47.560;9.708;2023-09-30T03:55:09;28.65;;;12.68;;
31782;SDS011;18351;47.560;9.708;2023-09-30T03:57:39;25.95;;;11.25;;
31782;SDS011;18351;47.560;9.708;2023-09-30T04:00:05;27.55;;;11.48;;
31782;SDS011;18351;47.560;9.708;2023-09-30T04:02:31;27.00;;;11.77;;
31782;SDS011;18351;47.560;9.708;2023-09-30T04:04:58;28.23;;;11.25;;
31782;SDS011;18351;47.560;9.708;2023-09-30T04:07:25;29.55;;;12.30;;
31782;SDS011;18351;47.560;9.708;2023-09-30T04:09:54;26.55;;;11.52;;
31782;SDS011;18351;47.560;9.708;2023-09-30T04:12:20;26.92;;;10.98;;
31782;SDS011;18351;47.560;9.708;2023-09-30T04:14:46;26.02;;;11.02;;
31782;SDS011;18351;47.560;9.708;2023-09-30T04:17:11;25.85;;;11.20;;
31782;SDS011;18351;47.560;9.708;2023-09-30T04:19:37;23.40;;;10.18;;
31782;SDS011;18351;47.560;9.708;2023-09-30T04:22:03;26.48;;;11.55;;
31782;SDS011;18351;47.560;9.708;2023-09-30T04:24:29;26.35;;;11.48;;
31782;SDS011;18351;47.560;9.708;2023-09-30T04:26:54;28.42;;;11.70;;
31782;SDS011;18351;47.560;9.708;2023-09-30T04:29:26;26.20;;;11.48;;
31782;SDS011;18351;47.560;9.708;2023-09-30T04:31:52;27.77;;;12.07;;
31782;SDS011;18351;47.560;9.708;2023-09-30T04:34:18;28.85;;;11.43;;
31782;SDS011;18351;47.560;9.708;2023-09-30T04:36:44;26.75;;;12.32;;
31782;SDS011;18351;47.560;9.708;2023-09-30T04:39:10;26.00;;;11.85;;
31782;SDS011;18351;47.560;9.708;2023-09-30T04:41:37;25.92;;;11.68;;
31782;SDS011;18351;47.560;9.708;2023-09-30T04:44:06;28.17;;;12.15;;
31782;SDS011;18351;47.560;9.708;2023-09-30T04:46:35;31.15;;;12.02;;
31782;SDS011;18351;47.560;9.708;2023-09-30T04:49:05;25.13;;;11.55;;
31782;SDS011;18351;47.560;9.708;2023-09-30T04:51:34;24.05;;;10.57;;
31782;SDS011;18351;47.560;9.708;2023-09-30T04:54:00;26.98;;;11.20;;
31782;SDS011;18351;47.560;9.708;2023-09-30T04:56:27;25.13;;;11.05;;
31782;SDS011;18351;47.560;9.708;2023-09-30T04:58:52;30.38;;;12.52;;
31782;SDS011;18351;47.560;9.708;2023-09-30T05:01:18;29.65;;;12.55;;
31782;SDS011;18351;47.560;9.708;2023-09-30T05:03:44;32.22;;;13.23;;
31782;SDS011;18351;47.560;9.708;2023-09-30T05:06:13;29.95;;;11.90;;
31782;SDS011;18351;47.560;9.708;2023-09-30T05:08:39;28.20;;;12.25;;
31782;SDS011;18351;47.560;9.708;2023-09-30T05:11:04;25.63;;;11.00;;
31782;SDS011;18351;47.560;9.708;2023-09-30T05:13:30;32.33;;;12.05;;
31782;SDS011;18351;47.560;9.708;2023-09-30T05:15:56;24.38;;;10.73;;
31782;SDS011;18351;47.560;9.708;2023-09-30T05:18:21;27.10;;;11.43;;
31782;SDS011;18351;47.560;9.708;2023-09-30T05:20:48;29.83;;;11.75;;
31782;SDS011;18351;47.560;9.708;2023-09-30T05:23:14;30.80;;;12.30;;
31782;SDS011;18351;47.560;9.708;2023-09-30T05:25:40;34.13;;;12.98;;
31782;SDS011;18351;47.560;9.708;2023-09-30T05:28:05;28.45;;;12.05;;
31782;SDS011;18351;47.560;9.708;2023-09-30T05:30:32;27.95;;;11.63;;
31782;SDS011;18351;47.560;9.708;2023-09-30T05:32:58;30.77;;;12.73;;
31782;SDS011;18351;47.560;9.708;2023-09-30T05:35:25;31.33;;;11.32;;
31782;SDS011;18351;47.560;9.708;2023-09-30T05:37:51;24.58;;;10.65;;
31782;SDS011;18351;47.560;9.708;2023-09-30T05:40:19;30.15;;;12.50;;
31782;SDS011;18351;47.560;9.708;2023-09-30T05:42:50;29.55;;;11.77;;
31782;SDS011;18351;47.560;9.708;2023-09-30T05:45:16;31.17;;;11.70;;
31782;SDS011;18351;47.560;9.708;2023-09-30T05:47:42;26.88;;;12.10;;
31782;SDS011;18351;47.560;9.708;2023-09-30T05:50:09;34.45;;;12.98;;
31782;SDS011;18351;47.560;9.708;2023-09-30T05:52:39;30.42;;;12.02;;
31782;SDS011;18351;47.560;9.708;2023-09-30T05:55:05;30.73;;;12.75;;
31782;SDS011;18351;47.560;9.708;2023-09-30T05:57:31;30.60;;;11.60;;
31782;SDS011;18351;47.560;9.708;2023-09-30T05:59:57;25.17;;;12.68;;
31782;SDS011;18351;47.560;9.708;2023-09-30T06:02:23;26.75;;;12.60;;
31782;SDS011;18351;47.560;9.708;2023-09-30T06:04:49;30.52;;;13.27;;
31782;SDS011;18351;47.560;9.708;2023-09-30T06:07:17;31.40;;;12.50;;
31782;SDS011;18351;47.560;9.708;2023-09-30T06:09:44;31.75;;;13.13;;
31782;SDS011;18351;47.560;9.708;2023-09-30T06:12:12;29.85;;;11.75;;
31782;SDS011;18351;47.560;9.708;2023-09-30T06:14:37;31.38;;;12.00;;
31782;SDS011;18351;47.560;9.708;2023-09-30T06:17:04;29.08;;;11.23;;
31782;SDS011;18351;47.560;9.708;2023-09-30T06:19:30;36.47;;;12.07;;
31782;SDS011;18351;47.560;9.708;2023-09-30T06:21:56;31.67;;;11.73;;
31782;SDS011;18351;47.560;9.708;2023-09-30T06:24:21;33.47;;;12.13;;
31782;SDS011;18351;47.560;9.708;2023-09-30T06:26:47;28.05;;;11.02;;
31782;SDS011;18351;47.560;9.708;2023-09-30T06:29:16;33.30;;;11.63;;
31782;SDS011;18351;47.560;9.708;2023-09-30T06:31:42;27.08;;;11.70;;
31782;SDS011;18351;47.560;9.708;2023-09-30T06:34:08;29.25;;;11.52;;
31782;SDS011;18351;47.560;9.708;2023-09-30T06:36:36;25.85;;;10.55;;
31782;SDS011;18351;47.560;9.708;2023-09-30T06:39:02;23.90;;;10.93;;
31782;SDS011;18351;47.560;9.708;2023-09-30T06:41:30;29.00;;;11.85;;
31782;SDS011;18351;47.560;9.708;2023-09-30T06:43:56;29.08;;;11.15;;
31782;SDS011;18351;47.560;9.708;2023-09-30T06:46:22;29.05;;;11.13;;
31782;SDS011;18351;47.560;9.708;2023-09-30T06:48:49;27.25;;;11.98;;
31782;SDS011;18351;47.560;9.708;2023-09-30T06:51:16;29.15;;;11.77;;
31782;SDS011;18351;47.560;9.708;2023-09-30T06:53:43;31.95;;;10.85;;
31782;SDS011;18351;47.560;9.708;2023-09-30T06:56:09;27.15;;;11.23;;
31782;SDS011;18351;47.560;9.708;2023-09-30T06:58:34;27.02;;;11.07;;
31782;SDS011;18351;47.560;9.708;2023-09-30T07:01:00;25.10;;;10.43;;
31782;SDS011;18351;47.560;9.708;2023-09-30T07:03:26;29.25;;;11.73;;
31782;SDS011;18351;47.560;9.708;2023-09-30T07:05:51;25.27;;;10.80;;
31782;SDS011;18351;47.560;9.708;2023-09-30T07:08:19;27.67;;;11.27;;
31782;SDS011;18351;47.560;9.708;2023-09-30T07:10:46;24.00;;;10.15;;
31782;SDS011;18351;47.560;9.708;2023-09-30T07:13:14;27.40;;;10.77;;
31782;SDS011;18351;47.560;9.708;2023-09-30T07:15:43;30.67;;;11.45;;
31782;SDS011;18351;47.560;9.708;2023-09-30T07:18:08;35.45;;;11.40;;
31782;SDS011;18351;47.560;9.708;2023-09-30T07:20:34;28.42;;;10.70;;
31782;SDS011;18351;47.560;9.708;2023-09-30T07:23:00;26.83;;;10.90;;
31782;SDS011;18351;47.560;9.708;2023-09-30T07:25:26;28.83;;;11.93;;
31782;SDS011;18351;47.560;9.708;2023-09-30T07:27:52;28.35;;;11.20;;
31782;SDS011;18351;47.560;9.708;2023-09-30T07:30:18;27.63;;;10.43;;
31782;SDS011;18351;47.560;9.708;2023-09-30T07:32:44;29.40;;;11.00;;
31782;SDS011;18351;47.560;9.708;2023-09-30T07:35:10;31.42;;;12.32;;
31782;SDS011;18351;47.560;9.708;2023-09-30T07:37:37;24.33;;;9.88;;
31782;SDS011;18351;47.560;9.708;2023-09-30T07:40:03;25.52;;;10.02;;
31782;SDS011;18351;47.560;9.708;2023-09-30T07:42:30;26.05;;;11.00;;
31782;SDS011;18351;47.560;9.708;2023-09-30T07:44:55;28.45;;;11.00;;
31782;SDS011;18351;47.560;9.708;2023-09-30T07:47:21;34.45;;;10.38;;
31782;SDS011;18351;47.560;9.708;2023-09-30T07:49:49;28.88;;;11.15;;
31782;SDS011;18351;47.560;9.708;2023-09-30T07:52:15;26.42;;;10.85;;
31782;SDS011;18351;47.560;9.708;2023-09-30T07:54:40;24.45;;;10.77;;
31782;SDS011;18351;47.560;9.708;2023-09-30T07:57:06;26.75;;;11.10;;
31782;SDS011;18351;47.560;9.708;2023-09-30T07:59:31;26.73;;;10.80;;
31782;SDS011;18351;47.560;9.708;2023-09-30T08:01:58;30.70;;;11.40;;
31782;SDS011;18351;47.560;9.708;2023-09-30T08:04:24;31.45;;;11.05;;
31782;SDS011;18351;47.560;9.708;2023-09-30T08:06:50;23.15;;;10.13;;
31782;SDS011;18351;47.560;9.708;2023-09-30T08:09:18;25.50;;;10.43;;
31782;SDS011;18351;47.560;9.708;2023-09-30T08:11:44;26.98;;;10.43;;
31782;SDS011;18351;47.560;9.708;2023-09-30T08:14:10;25.98;;;9.82;;
31782;SDS011;18351;47.560;9.708;2023-09-30T08:16:36;24.88;;;10.25;;
31782;SDS011;18351;47.560;9.708;2023-09-30T08:19:02;25.45;;;9.73;;
31782;SDS011;18351;47.560;9.708;2023-09-30T08:21:28;27.45;;;9.93;;
31782;SDS011;18351;47.560;9.708;2023-09-30T08:23:54;28.17;;;9.52;;
31782;SDS011;18351;47.560;9.708;2023-09-30T08:26:19;30.67;;;11.50;;
31782;SDS011;18351;47.560;9.708;2023-09-30T08:28:45;24.08;;;10.63;;
31782;SDS011;18351;47.560;9.708;2023-09-30T08:31:11;26.23;;;10.27;;
31782;SDS011;18351;47.560;9.708;2023-09-30T08:33:36;26.95;;;10.93;;
31782;SDS011;18351;47.560;9.708;2023-09-30T08:36:05;26.30;;;10.65;;
31782;SDS011;18351;47.560;9.708;2023-09-30T08:38:35;27.85;;;10.52;;
31782;SDS011;18351;47.560;9.708;2023-09-30T08:41:01;25.70;;;10.63;;
31782;SDS011;18351;47.560;9.708;2023-09-30T08:43:27;28.15;;;10.88;;
31782;SDS011;18351;47.560;9.708;2023-09-30T08:45:55;25.48;;;9.95;;
31782;SDS011;18351;47.560;9.708;2023-09-30T08:48:21;25.25;;;10.10;;
31782;SDS011;18351;47.560;9.708;2023-09-30T08:50:49;24.85;;;10.30;;
31782;SDS011;18351;47.560;9.708;2023-09-30T08:53:17;23.98;;;10.68;;
31782;SDS011;18351;47.560;9.708;2023-09-30T08:55:44;25.10;;;10.80;;
31782;SDS011;18351;47.560;9.708;2023-09-30T08:58:14;22.88;;;9.85;;
31782;SDS011;18351;47.560;9.708;2023-09-30T09:00:40;20.83;;;9.75;;
31782;SDS011;18351;47.560;9.708;2023-09-30T09:03:06;22.52;;;9.60;;
31782;SDS011;18351;47.560;9.708;2023-09-30T09:05:32;25.95;;;10.73;;
31782;SDS011;18351;47.560;9.708;2023-09-30T09:07:58;22.48;;;9.48;;
31782;SDS011;18351;47.560;9.708;2023-09-30T09:10:24;20.63;;;9.35;;
31782;SDS011;18351;47.560;9.708;2023-09-30T09:12:56;26.60;;;10.57;;
31782;SDS011;18351;47.560;9.708;2023-09-30T09:15:26;28.15;;;11.43;;
31782;SDS011;18351;47.560;9.708;2023-09-30T09:17:55;23.90;;;9.98;;
31782;SDS011;18351;47.560;9.708;2023-09-30T09:20:23;26.63;;;10.27;;
31782;SDS011;18351;47.560;9.708;2023-09-30T09:22:54;22.02;;;9.90;;
31782;SDS011;18351;47.560;9.708;2023-09-30T09:25:21;25.27;;;10.63;;
31782;SDS011;18351;47.560;9.708;2023-09-30T09:27:53;24.90;;;10.80;;
31782;SDS011;18351;47.560;9.708;2023-09-30T09:30:20;28.40;;;11.15;;
31782;SDS011;18351;47.560;9.708;2023-09-30T09:32:59;22.58;;;9.95;;
31782;SDS011;18351;47.560;9.708;2023-09-30T09:35:30;25.88;;;10.38;;
31782;SDS011;18351;47.560;9.708;2023-09-30T09:38:04;21.17;;;9.32;;
31782;SDS011;18351;47.560;9.708;2023-09-30T09:40:35;22.13;;;9.85;;
31782;SDS011;18351;47.560;9.708;2023-09-30T09:43:03;23.55;;;10.48;;
31782;SDS011;18351;47.560;9.708;2023-09-30T09:45:32;26.85;;;9.88;;
31782;SDS011;18351;47.560;9.708;2023-09-30T09:48:00;25.13;;;9.88;;
31782;SDS011;18351;47.560;9.708;2023-09-30T09:50:26;25.00;;;9.88;;
31782;SDS011;18351;47.560;9.708;2023-09-30T09:52:52;24.83;;;10.57;;
31782;SDS011;18351;47.560;9.708;2023-09-30T09:55:24;20.95;;;9.45;;
31782;SDS011;18351;47.560;9.708;2023-09-30T09:57:50;27.20;;;10.50;;
31782;SDS011;18351;47.560;9.708;2023-09-30T10:00:20;22.70;;;9.40;;
31782;SDS011;18351;47.560;9.708;2023-09-30T10:02:48;21.48;;;8.93;;
31782;SDS011;18351;47.560;9.708;2023-09-30T10:05:15;23.63;;;10.10;;
31782;SDS011;18351;47.560;9.708;2023-09-30T10:07:46;21.80;;;10.27;;
31782;SDS011;18351;47.560;9.708;2023-09-30T10:10:28;21.60;;;9.98;;
31782;SDS011;18351;47.560;9.708;2023-09-30T10:12:55;21.65;;;9.15;;
31782;SDS011;18351;47.560;9.708;2023-09-30T10:17:56;21.92;;;9.85;;
31782;SDS011;18351;47.560;9.708;2023-09-30T10:20:28;20.38;;;8.90;;
31782;SDS011;18351;47.560;9.708;2023-09-30T10:25:42;23.27;;;10.43;;
31782;SDS011;18351;47.560;9.708;2023-09-30T10:31:16;26.08;;;11.15;;
31782;SDS011;18351;47.560;9.708;2023-09-30T10:36:27;21.75;;;9.23;;
31782;SDS011;18351;47.560;9.708;2023-09-30T10:38:54;23.33;;;10.25;;
31782;SDS011;18351;47.560;9.708;2023-09-30T10:42:05;20.58;;;9.45;;
31782;SDS011;18351;47.560;9.708;2023-09-30T10:46:53;24.95;;;10.05;;
31782;SDS011;18351;47.560;9.708;2023-09-30T10:51:55;23.33;;;9.57;;
31782;SDS011;18351;47.560;9.708;2023-09-30T10:56:49;22.83;;;9.48;;
31782;SDS011;18351;47.560;9.708;2023-09-30T10:59:23;21.70;;;9.57;;
31782;SDS011;18351;47.560;9.708;2023-09-30T11:01:50;24.65;;;10.25;;
31782;SDS011;18351;47.560;9.708;2023-09-30T11:04:17;26.15;;;10.20;;
31782;SDS011;18351;47.560;9.708;2023-09-30T11:06:43;20.05;;;9.02;;
31782;SDS011;18351;47.560;9.708;2023-09-30T11:09:10;21.00;;;9.63;;
31782;SDS011;18351;47.560;9.708;2023-09-30T11:11:45;22.75;;;10.30;;
31782;SDS011;18351;47.560;9.708;2023-09-30T11:16:45;20.95;;;10.13;;
31782;SDS011;18351;47.560;9.708;2023-09-30T11:19:12;24.70;;;10.65;;
31782;SDS011;18351;47.560;9.708;2023-09-30T11:21:41;23.45;;;10.10;;
31782;SDS011;18351;47.560;9.708;2023-09-30T11:24:08;22.55;;;10.13;;
31782;SDS011;18351;47.560;9.708;2023-09-30T11:26:34;24.85;;;10.18;;
31782;SDS011;18351;47.560;9.708;2023-09-30T11:29:12;25.70;;;10.90;;
31782;SDS011;18351;47.560;9.708;2023-09-30T11:31:41;21.88;;;9.70;;
31782;SDS011;18351;47.560;9.708;2023-09-30T11:34:08;24.27;;;10.32;;
31782;SDS011;18351;47.560;9.708;2023-09-30T11:36:39;24.35;;;10.20;;
31782;SDS011;18351;47.560;9.708;2023-09-30T11:39:20;23.77;;;10.50;;
31782;SDS011;18351;47.560;9.708;2023-09-30T11:41:50;23.50;;;10.65;;
31782;SDS011;18351;47.560;9.708;2023-09-30T11:44:17;24.50;;;10.40;;
31782;SDS011;18351;47.560;9.708;2023-09-30T11:46:55;24.95;;;10.88;;
31782;SDS011;18351;47.560;9.708;2023-09-30T11:49:28;25.15;;;10.88;;
31782;SDS011;18351;47.560;9.708;2023-09-30T11:51:55;23.83;;;11.13;;
31782;SDS011;18351;47.560;9.708;2023-09-30T11:54:22;28.05;;;10.80;;
31782;SDS011;18351;47.560;9.708;2023-09-30T11:56:53;25.38;;;10.63;;
31782;SDS011;18351;47.560;9.708;2023-09-30T11:59:18;25.42;;;10.38;;
31782;SDS011;18351;47.560;9.708;2023-09-30T12:01:47;26.30;;;11.18;;
31782;SDS011;18351;47.560;9.708;2023-09-30T12:04:14;23.38;;;10.15;;
31782;SDS011;18351;47.560;9.708;2023-09-30T12:06:42;21.60;;;9.55;;
31782;SDS011;18351;47.560;9.708;2023-09-30T12:09:08;24.55;;;11.27;;
31782;SDS011;18351;47.560;9.708;2023-09-30T12:11:38;28.42;;;11.77;;
31782;SDS011;18351;47.560;9.708;2023-09-30T12:14:04;28.77;;;12.32;;
31782;SDS011;18351;47.560;9.708;2023-09-30T12:16:29;23.17;;;10.82;;
31782;SDS011;18351;47.560;9.708;2023-09-30T12:18:55;24.73;;;10.43;;
31782;SDS011;18351;47.560;9.708;2023-09-30T12:21:21;26.70;;;11.27;;
31782;SDS011;18351;47.560;9.708;2023-09-30T12:23:47;28.60;;;12.02;;
31782;SDS011;18351;47.560;9.708;2023-09-30T12:26:13;26.83;;;11.27;;
31782;SDS011;18351;47.560;9.708;2023-09-30T12:28:39;23.90;;;11.20;;
31782;SDS011;18351;47.560;9.708;2023-09-30T12:31:08;25.40;;;10.95;;
31782;SDS011;18351;47.560;9.708;2023-09-30T12:33:35;24.45;;;11.27;;
31782;SDS011;18351;47.560;9.708;2023-09-30T12:36:01;27.55;;;11.85;;
31782;SDS011;18351;47.560;9.708;2023-09-30T12:38:27;24.92;;;11.60;;
31782;SDS011;18351;47.560;9.708;2023-09-30T12:40:56;27.90;;;12.38;;
31782;SDS011;18351;47.560;9.708;2023-09-30T12:43:22;25.85;;;11.50;;
31782;SDS011;18351;47.560;9.708;2023-09-30T12:45:48;32.08;;;11.77;;
31782;SDS011;18351;47.560;9.708;2023-09-30T12:48:16;30.50;;;12.95;;
31782;SDS011;18351;47.560;9.708;2023-09-30T12:50:42;26.95;;;11.15;;
31782;SDS011;18351;47.560;9.708;2023-09-30T12:53:08;27.23;;;11.80;;
31782;SDS011;18351;47.560;9.708;2023-09-30T12:55:34;27.60;;;12.98;;
31782;SDS011;18351;47.560;9.708;2023-09-30T12:57:59;30.48;;;12.40;;
31782;SDS011;18351;47.560;9.708;2023-09-30T13:00:25;29.73;;;12.35;;
31782;SDS011;18351;47.560;9.708;2023-09-30T13:02:52;25.65;;;11.30;;
31782;SDS011;18351;47.560;9.708;2023-09-30T13:05:18;30.27;;;12.25;;
31782;SDS011;18351;47.560;9.708;2023-09-30T13:07:45;28.58;;;11.88;;
31782;SDS011;18351;47.560;9.708;2023-09-30T13:10:11;26.02;;;10.98;;
31782;SDS011;18351;47.560;9.708;2023-09-30T13:12:38;24.88;;;11.48;;
31782;SDS011;18351;47.560;9.708;2023-09-30T13:15:04;27.65;;;12.30;;
31782;SDS011;18351;47.560;9.708;2023-09-30T13:17:30;25.85;;;12.38;;
31782;SDS011;18351;47.560;9.708;2023-09-30T13:19:56;32.05;;;11.48;;
31782;SDS011;18351;47.560;9.708;2023-09-30T13:22:23;30.67;;;12.13;;
31782;SDS011;18351;47.560;9.708;2023-09-30T13:24:48;35.50;;;11.73;;
31782;SDS011;18351;47.560;9.708;2023-09-30T13:27:14;24.92;;;11.93;;
31782;SDS011;18351;47.560;9.708;2023-09-30T13:29:40;27.98;;;12.02;;
31782;SDS011;18351;47.560;9.708;2023-09-30T13:32:06;25.58;;;12.43;;
31782;SDS011;18351;47.560;9.708;2023-09-30T13:34:34;24.35;;;10.70;;
31782;SDS011;18351;47.560;9.708;2023-09-30T13:37:00;24.52;;;11.15;;
31782;SDS011;18351;47.560;9.708;2023-09-30T13:39:25;25.23;;;10.88;;
31782;SDS011;18351;47.560;9.708;2023-09-30T13:41:51;24.90;;;11.35;;
31782;SDS011;18351;47.560;9.708;2023-09-30T13:44:16;25.10;;;12.38;;
31782;SDS011;18351;47.560;9.708;2023-09-30T13:46:43;23.40;;;10.38;;
31782;SDS011;18351;47.560;9.708;2023-09-30T13:49:09;21.95;;;10.93;;
31782;SDS011;18351;47.560;9.708;2023-09-30T13:51:34;24.65;;;10.73;;
31782;SDS011;18351;47.560;9.708;2023-09-30T13:54:00;22.48;;;10.48;;
31782;SDS011;18351;47.560;9.708;2023-09-30T13:56:26;27.35;;;11.10;;
31782;SDS011;18351;47.560;9.708;2023-09-30T13:58:52;27.85;;;12.10;;
31782;SDS011;18351;47.560;9.708;2023-09-30T14:01:18;26.80;;;10.98;;
31782;SDS011;18351;47.560;9.708;2023-09-30T14:03:45;27.13;;;11.35;;
31782;SDS011;18351;47.560;9.708;2023-09-30T14:06:12;26.27;;;11.95;;
31782;SDS011;18351;47.560;9.708;2023-09-30T14:08:39;25.35;;;11.02;;
31782;SDS011;18351;47.560;9.708;2023-09-30T14:11:11;23.73;;;10.68;;
31782;SDS011;18351;47.560;9.708;2023-09-30T14:13:37;24.42;;;11.25;;
31782;SDS011;18351;47.560;9.708;2023-09-30T14:16:04;24.60;;;10.90;;
31782;SDS011;18351;47.560;9.708;2023-09-30T14:18:30;21.73;;;10.13;;
31782;SDS011;18351;47.560;9.708;2023-09-30T14:20:55;24.25;;;10.88;;
31782;SDS011;18351;47.560;9.708;2023-09-30T14:23:21;24.63;;;10.68;;
31782;SDS011;18351;47.560;9.708;2023-09-30T14:25:48;23.38;;;10.18;;
31782;SDS011;18351;47.560;9.708;2023-09-30T14:28:14;23.38;;;10.48;;
31782;SDS011;18351;47.560;9.708;2023-09-30T14:30:39;25.45;;;11.23;;
31782;SDS011;18351;47.560;9.708;2023-09-30T14:33:05;22.30;;;10.00;;
31782;SDS011;18351;47.560;9.708;2023-09-30T14:35:32;25.00;;;10.75;;
31782;SDS011;18351;47.560;9.708;2023-09-30T14:37:59;31.73;;;11.70;;
31782;SDS011;18351;47.560;9.708;2023-09-30T14:40:25;24.98;;;10.88;;
31782;SDS011;18351;47.560;9.708;2023-09-30T14:42:51;28.50;;;11.60;;